Date,TemperatureHighF,TemperatureAvgF,TemperatureLowF,DewpointHighF,DewpointAvgF,DewpointLowF,HumidityHigh,HumidityAvg,HumidityLow,PressureMaxIn,PressureMinIn,WindSpeedMaxMPH,WindSpeedAvgMPH,GustSpeedMaxMPH,PrecipitationSumIn
2013-1-1,33.1,29.8,21.9,28.0,18.8,5.9,87,64,50,29.78,29.69,7,1,7,0.00
2013-1-2,31.6,20.7,14.7,8.6,3.0,-2.5,58,46,38,29.93,29.75,8,1,8,0.00
2013-1-3,36.5,22.2,8.8,14.2,4.6,-3.2,64,47,37,29.93,29.75,8,2,8,0.00
2013-1-4,34.5,28.3,23.9,12.0,7.2,3.1,46,40,37,29.93,29.81,10,3,10,0.00
2013-1-5,38.8,29.5,22.5,15.3,9.1,3.1,50,42,36,30.08,29.84,6,1,6,0.00
2013-1-6,41.0,34.1,26.6,22.7,16.9,12.7,62,50,36,29.90,29.73,9,1,9,0.00
2013-1-7,38.1,30.0,20.7,17.4,14.2,7.6,78,52,37,30.14,29.90,6,1,6,0.00
2013-1-8,45.9,29.6,19.0,28.6,16.5,10.7,86,60,35,30.05,29.90,6,0,6,0.00
2013-1-9,46.4,35.4,26.6,33.6,23.7,17.6,78,63,48,30.17,29.90,7,1,6,0.00
2013-1-10,41.4,34.2,26.1,30.6,18.8,12.8,95,57,36,30.26,29.96,6,1,6,0.00
2013-1-11,52.5,44.4,37.6,51.1,32.9,12.8,100,68,35,29.96,29.67,6,1,6,0.04
2013-1-12,63.0,53.8,46.2,59.7,49.5,40.4,100,87,47,29.81,29.69,4,0,0,0.00
2013-1-13,69.4,59.3,51.4,57.0,43.2,36.1,100,58,32,29.69,29.58,6,1,6,0.04
2013-1-14,56.8,38.7,30.4,56.8,20.6,8.1,100,50,34,30.08,29.67,10,2,10,0.00
2013-1-15,33.6,29.6,24.4,20.0,11.0,7.6,64,46,38,30.05,29.75,8,2,8,0.00
2013-1-16,33.8,32.5,30.7,32.1,28.9,20.0,96,87,64,29.75,29.55,6,0,6,0.04
2013-1-17,34.0,31.8,29.5,29.5,19.7,17.1,93,61,51,29.87,29.67,4,0,0,0.00
2013-1-18,40.3,26.3,16.0,19.2,5.3,-3.8,61,40,36,30.11,29.84,8,1,8,0.00
2013-1-19,59.0,40.9,29.1,28.7,15.7,6.3,38,36,32,29.93,29.49,10,3,10,0.00
2013-1-20,45.7,34.4,22.1,19.6,10.5,-0.3,39,37,35,29.78,27.89,12,3,12,0.00
2013-1-21,27.9,21.3,10.2,8.5,0.2,-9.9,54,39,37,31.02,27.89,10,2,10,0.00
2013-1-22,17.4,9.1,4.3,-4.2,-10.9,-15.3,39,39,38,27.89,27.89,12,3,12,0.00
2013-1-23,20.8,11.6,2.3,-0.5,-8.3,-17.2,49,40,38,27.89,27.89,7,1,7,0.00
2013-1-24,26.8,15.4,9.1,9.0,-2.3,-11.0,63,45,37,27.89,27.89,8,1,8,0.00
2013-1-25,20.7,15.5,10.9,7.3,-2.2,-9.2,61,45,39,27.89,27.89,8,1,8,0.00
2013-1-26,30.4,22.7,12.7,13.6,7.8,1.3,66,53,39,27.89,27.89,6,1,6,0.00
2013-1-27,35.4,23.6,10.0,13.9,6.7,1.3,69,50,37,27.89,27.89,6,1,6,0.00
2013-1-28,48.6,39.7,29.7,48.6,35.5,7.1,100,87,38,27.89,27.89,6,1,6,0.51
2013-1-29,64.4,53.5,47.1,59.9,44.1,36.6,100,75,38,27.89,27.89,8,1,8,0.00
2013-1-30,64.2,55.5,46.9,54.9,42.2,33.8,100,64,38,27.89,27.89,12,2,12,0.39
2013-1-31,46.9,28.5,22.1,42.3,12.4,1.8,85,52,38,27.89,27.89,13,1,13,0.00
2013-2-1,22.8,15.5,7.2,12.1,-3.4,-12.8,63,43,37,27.89,27.89,7,1,7,0.00
2013-2-2,27.0,17.5,5.9,14.5,0.3,-14.0,69,47,38,27.89,27.89,8,1,8,0.00
2013-2-3,31.6,23.5,17.4,15.0,9.7,1.2,70,56,41,27.89,27.89,8,2,8,0.00
2013-2-4,30.7,23.0,16.0,17.5,7.1,-0.5,67,51,38,27.89,27.89,8,1,8,0.00
2013-2-5,33.1,29.0,26.6,21.3,19.0,14.4,74,66,54,27.89,27.89,6,0,6,0.00
2013-2-6,35.8,27.1,17.4,20.5,12.9,2.8,73,56,37,27.89,27.89,8,1,8,0.00
2013-2-7,44.1,31.2,17.4,18.0,12.9,8.2,73,48,35,27.89,27.89,9,2,9,0.04
2013-2-8,37.8,32.3,25.9,33.1,19.1,10.5,84,58,48,27.89,27.89,13,2,13,0.08
2013-2-9,42.1,25.9,19.6,15.1,7.2,1.8,63,45,36,27.89,27.89,8,0,8,0.00
2013-2-10,51.6,34.7,18.1,24.1,14.6,6.8,72,46,34,27.89,27.89,8,2,8,0.00
2013-2-11,70.3,45.8,36.5,47.6,27.9,12.7,96,55,30,27.89,27.89,15,3,15,0.00
2013-2-12,45.3,35.3,27.5,18.3,12.7,8.9,57,39,35,27.89,27.89,12,2,12,0.00
2013-2-13,42.3,31.6,24.6,28.6,18.6,12.8,94,61,36,27.89,27.89,6,0,6,0.00
2013-2-14,43.2,34.1,27.0,30.9,21.4,16.3,94,61,38,27.89,27.89,8,1,8,0.00
2013-2-15,42.8,34.7,27.1,35.0,19.9,12.7,93,57,35,27.89,27.89,6,1,6,0.00
2013-2-16,41.7,26.2,19.4,16.2,8.6,-0.7,62,48,36,27.89,27.89,6,1,6,0.00
2013-2-17,28.2,19.6,10.2,9.6,1.8,-10.0,62,46,37,27.89,27.89,9,3,9,0.00
2013-2-18,44.2,26.2,8.2,18.3,4.0,-11.8,53,38,35,27.89,27.89,8,1,8,0.00
2013-2-19,45.3,35.4,23.9,33.9,18.0,2.5,84,50,35,27.89,27.89,12,2,12,0.00
2013-2-20,32.2,21.3,18.3,8.7,1.3,-2.0,53,41,37,27.89,27.89,0,0,0,0.00
2013-2-21,34.2,22.2,18.0,10.2,2.6,-1.4,56,42,38,27.89,27.89,0,0,0,0.00
2013-2-22,38.3,30.7,21.2,27.4,14.2,0.6,77,51,38,27.89,27.89,10,2,10,0.00
2013-2-24,35.2,29.9,26.2,13.1,8.6,5.7,51,40,37,30.08,27.89,8,1,8,0.00
2013-2-25,48.6,32.6,21.6,21.7,12.7,7.4,69,45,34,30.17,29.99,10,1,10,0.00
2013-2-26,40.3,34.9,28.8,36.9,20.1,6.3,100,58,36,30.02,29.55,13,4,13,0.12
2013-2-27,48.4,38.8,33.3,39.8,30.3,21.0,97,73,43,29.67,29.52,8,1,8,0.00
2013-2-28,36.1,33.5,31.8,31.0,23.9,18.4,92,68,53,29.78,29.58,6,0,6,0.00
2013-3-1,34.0,30.2,26.1,26.2,14.3,7.2,79,52,42,29.93,29.75,0,0,0,0.00
2013-3-2,34.2,27.0,24.6,15.0,10.0,5.7,63,49,38,29.93,29.87,0,0,0,0.00
2013-3-3,37.6,26.5,22.8,15.0,8.9,3.6,64,48,37,29.96,29.84,8,1,8,0.00
2013-3-4,50.4,28.4,19.2,22.7,8.7,3.8,57,44,34,30.05,29.93,8,2,8,0.00
2013-3-5,49.5,32.8,19.2,22.2,13.3,7.2,71,46,34,30.02,29.64,12,3,12,0.00
2013-3-6,43.7,35.6,32.2,31.3,21.2,11.7,95,59,35,30.05,29.64,10,1,10,0.00
2013-3-7,47.7,36.0,31.6,23.8,17.8,12.5,65,48,34,30.23,30.05,8,2,8,0.00
2013-3-8,49.6,32.7,25.3,20.5,14.2,10.4,70,47,36,30.34,30.23,10,3,10,0.00
2013-3-9,64.6,37.6,21.9,32.4,19.2,13.8,86,51,30,30.34,30.14,6,1,6,0.00
2013-3-10,73.8,54.8,38.5,38.3,25.8,13.8,36,33,29,30.14,29.96,8,2,8,0.00
2013-3-11,64.8,54.6,46.8,42.7,27.3,20.3,76,36,30,29.99,29.69,9,2,9,0.08
2013-3-12,46.8,39.5,33.4,41.6,23.9,13.0,89,56,38,29.96,29.75,8,2,8,0.32
2013-3-13,42.1,31.9,25.9,24.5,15.4,5.5,73,51,36,30.08,29.87,12,2,12,0.00
2013-3-14,43.3,30.1,22.3,17.5,8.0,2.6,44,39,35,30.17,30.05,10,3,10,0.00
2013-3-15,54.0,38.2,23.5,26.6,15.6,3.8,59,40,33,30.08,29.78,10,2,10,0.00
2013-3-16,42.3,37.2,31.8,33.4,28.4,20.3,93,71,56,29.93,29.61,7,2,7,0.04
2013-3-17,39.4,32.7,28.6,20.6,12.6,7.6,62,43,36,30.14,29.90,6,2,6,0.00
2013-3-18,39.9,34.4,29.1,30.5,20.7,7.8,88,58,38,30.11,29.67,14,4,14,0.04
2013-3-19,59.2,38.5,27.7,39.4,19.8,5.3,89,49,32,29.93,29.67,13,4,13,0.00
2013-3-20,47.5,31.5,23.4,20.2,8.6,2.0,42,38,34,29.93,29.75,13,3,13,0.00
2013-3-21,37.8,25.2,16.9,12.5,3.9,-2.8,47,39,36,29.87,29.78,8,3,8,0.00
2013-3-22,39.7,28.7,22.8,14.9,7.6,3.8,54,41,36,29.96,29.84,8,2,8,0.00
2013-3-23,57.7,33.7,19.2,27.7,14.0,5.5,68,46,32,29.99,29.90,8,2,8,0.00
2013-3-24,46.2,33.9,26.1,22.6,12.6,4.4,64,42,35,29.96,29.49,10,4,10,0.00
2013-3-25,40.3,34.4,32.0,32.2,27.2,20.5,95,76,52,29.69,29.43,9,1,9,0.04
2013-3-26,46.4,36.0,31.8,33.4,25.5,14.6,100,69,35,30.02,29.69,8,1,8,0.08
2013-3-27,47.7,37.1,32.5,29.3,20.5,12.5,86,54,34,30.11,29.99,9,2,9,0.00
2013-3-28,46.6,38.6,34.7,19.9,15.2,12.8,45,38,34,30.23,30.08,8,2,8,0.00
2013-3-29,63.3,43.6,33.6,31.4,20.3,10.2,54,40,31,30.23,30.14,8,1,8,0.00
2013-3-30,67.1,42.6,25.2,34.6,19.0,7.9,62,40,30,30.20,29.99,7,1,7,0.00
2013-3-31,53.1,45.4,39.6,40.3,28.2,14.8,73,53,34,29.99,29.73,6,1,6,0.04
2013-4-1,46.8,46.8,46.8,38.6,38.6,38.6,73,73,73,29.73,29.73,0,0,0,0.00
2013-4-2,49.1,42.3,25.5,38.6,28.4,4.0,73,60,34,30.14,29.73,8,1,8,0.00
2013-4-3,54.0,32.0,21.0,25.0,9.1,0.9,47,38,33,30.34,30.11,12,2,12,0.00
2013-4-4,59.4,37.8,18.9,29.2,13.3,-1.4,45,37,32,30.32,29.93,9,1,9,0.00
2013-4-5,65.1,43.0,29.1,32.9,17.2,6.6,38,35,31,30.14,29.90,13,2,13,0.00
2013-4-6,67.3,42.8,23.4,34.0,17.8,3.6,54,37,30,30.23,29.99,8,2,8,0.00
2013-4-7,80.1,60.3,49.6,42.9,29.9,22.2,35,32,27,29.99,29.87,10,2,10,0.08
2013-4-8,80.8,61.9,46.6,43.1,32.5,22.3,47,34,27,30.02,29.90,9,2,9,0.00
2013-4-9,89.4,68.2,52.9,52.0,38.4,29.9,60,34,28,30.08,29.93,8,1,8,0.00
2013-4-10,84.0,67.2,58.6,60.2,44.2,31.6,100,47,29,29.99,29.84,8,1,8,0.12
2013-4-11,79.3,64.7,54.7,64.8,47.5,35.5,100,61,30,29.90,29.64,7,1,7,0.00
2013-4-12,64.2,54.3,44.4,60.4,36.1,18.4,100,53,34,29.84,29.52,8,2,8,0.16
2013-4-13,64.6,46.3,35.4,32.6,21.7,15.2,59,38,31,29.99,29.84,9,2,9,0.00
2013-4-14,70.7,49.8,31.1,36.9,24.8,11.9,63,39,29,30.11,29.99,8,2,7,0.00
2013-4-15,74.5,60.6,53.8,39.2,30.3,25.3,37,32,28,30.08,29.96,9,3,9,0.00
2013-4-16,87.3,64.1,51.4,58.6,42.5,29.5,100,50,28,30.20,30.02,9,2,9,0.47
2013-4-17,75.6,59.8,52.2,58.1,43.1,32.1,100,59,29,30.23,30.08,6,1,6,0.00
2013-4-18,90.1,72.0,57.4,51.9,45.0,35.7,70,41,27,30.11,29.81,10,3,10,0.00
2013-4-19,70.0,58.0,43.2,53.1,33.6,17.3,70,41,30,29.84,29.52,13,3,13,0.04
2013-4-20,56.8,42.2,33.3,26.4,17.5,10.2,51,37,32,30.34,29.84,10,3,10,0.00
2013-4-21,63.9,41.3,26.6,31.7,18.1,9.2,61,40,31,30.52,30.34,10,2,10,0.00
2013-4-22,72.5,52.3,39.4,37.3,24.1,14.6,36,33,29,30.40,30.23,10,4,10,0.00
2013-4-23,81.5,56.9,37.0,46.2,28.0,14.6,50,34,27,30.23,29.93,7,2,7,0.00
2013-4-24,74.5,55.2,38.8,55.8,32.3,22.9,91,44,28,30.14,29.75,9,2,9,0.55
2013-4-25,70.2,47.4,32.2,36.4,27.5,18.8,91,50,29,30.32,30.14,9,2,9,0.00
2013-4-26,71.6,49.5,34.9,37.5,28.5,17.2,91,48,29,30.40,30.29,6,1,6,0.08
2013-4-27,82.0,58.4,37.2,46.3,29.1,13.8,50,33,27,30.34,30.14,9,2,9,0.00
2013-4-28,63.3,55.4,51.1,49.8,35.4,23.6,81,49,32,30.14,29.93,8,2,8,0.08
2013-4-29,67.1,57.4,51.1,48.6,42.4,37.0,71,58,40,30.02,29.90,6,0,6,0.00
2013-4-30,83.8,62.8,51.1,54.0,42.2,30.5,100,53,27,30.17,30.02,10,2,10,0.00
2013-5-1,88.3,64.9,52.3,49.9,38.1,28.2,58,39,26,30.32,30.17,9,2,9,0.00
2013-5-2,87.8,64.9,49.5,49.7,33.2,22.2,34,31,27,30.32,30.20,10,2,10,0.00
2013-5-3,84.2,63.6,49.1,48.2,32.3,21.9,34,31,27,30.23,30.14,13,3,13,0.00
2013-5-4,77.7,60.5,46.4,41.8,29.9,19.5,34,31,28,30.20,30.08,13,3,13,0.00
2013-5-5,81.9,61.8,46.9,46.1,31.5,22.1,47,32,28,30.14,30.02,10,3,10,0.00
2013-5-6,77.0,60.3,45.9,42.6,31.0,19.5,46,33,28,30.05,29.99,10,3,10,0.00
2013-5-7,71.6,61.1,57.2,51.1,41.7,35.4,78,50,32,30.02,29.96,10,2,10,0.00
2013-5-8,85.3,64.0,53.2,57.6,43.7,32.3,100,55,27,29.99,29.90,6,1,6,0.04
2013-5-9,86.4,65.1,52.9,53.8,41.5,25.6,89,46,28,30.02,29.90,6,1,6,0.00
2013-5-10,78.1,63.3,57.7,60.8,48.5,37.3,100,63,30,30.02,29.81,9,1,9,0.35
2013-5-11,60.8,56.7,48.6,60.6,48.4,36.7,100,77,46,29.84,29.78,5,0,4,0.12
2013-5-12,58.6,48.6,38.5,47.2,25.4,18.0,87,42,32,30.02,29.81,8,2,8,0.00
2013-5-13,60.1,44.4,32.5,29.9,19.7,12.5,57,38,32,30.14,30.02,8,2,8,0.00
2013-5-14,68.4,49.9,32.4,35.7,23.7,10.7,51,36,30,30.11,29.87,6,1,6,0.00
2013-5-15,92.1,68.8,51.3,52.4,39.6,23.6,48,35,27,29.87,29.73,9,2,9,0.00
2013-5-16,87.6,69.2,61.0,66.0,48.1,32.3,100,53,28,29.99,29.81,6,1,6,0.16
2013-5-17,88.9,68.6,57.6,60.1,46.7,32.3,96,51,28,30.14,29.99,6,0,5,0.00
2013-5-18,86.2,69.8,57.4,48.9,38.8,27.9,45,32,28,30.14,30.08,6,2,6,0.00
2013-5-19,86.0,69.1,60.4,57.6,45.3,41.2,79,44,28,30.11,29.99,7,1,7,0.00
2013-5-20,97.0,73.1,60.6,62.5,52.5,42.1,97,55,26,30.05,29.96,6,1,6,0.00
2013-5-21,94.5,76.1,65.7,67.8,54.0,41.6,100,52,26,29.99,29.87,8,1,8,0.08
2013-5-22,88.0,71.5,62.8,65.5,53.3,43.6,100,59,28,29.93,29.81,8,1,8,0.00
2013-5-23,77.7,64.9,49.6,66.9,55.4,37.2,100,76,30,29.90,29.81,6,1,6,0.51
2013-5-24,55.8,45.6,39.6,43.1,26.9,15.2,78,50,33,30.23,29.90,10,2,10,0.00
2013-5-25,70.7,48.8,33.1,36.6,26.5,15.7,79,45,29,30.26,30.17,9,2,9,0.00
2013-5-26,80.1,53.5,36.5,42.9,28.4,18.9,62,40,27,30.23,30.17,8,1,8,0.00
2013-5-27,63.5,54.6,42.1,32.3,28.2,19.5,59,37,31,30.23,30.08,6,1,6,0.00
2013-5-28,87.4,66.3,54.1,63.9,47.4,29.7,93,55,28,30.08,29.99,6,1,6,0.04
2013-5-29,94.8,74.7,65.1,54.1,46.1,38.6,53,37,26,30.11,30.02,8,1,8,0.00
2013-5-30,95.0,76.5,64.2,54.1,48.2,41.8,57,39,26,30.20,30.11,6,1,6,0.00
2013-5-31,96.1,77.3,65.7,55.2,48.9,39.8,65,39,26,30.17,30.05,7,1,7,0.00
2013-6-1,88.7,75.9,66.7,64.7,49.3,41.3,88,41,28,30.08,29.87,6,1,6,0.04
2013-6-2,82.4,73.6,66.6,61.5,47.4,37.8,76,41,29,29.93,29.84,8,2,8,0.00
2013-6-3,74.5,62.7,52.3,44.9,37.0,23.9,54,39,30,30.08,29.90,6,1,6,0.00
2013-6-4,82.9,60.3,42.8,46.9,32.6,22.8,65,37,27,30.14,30.05,6,1,6,0.00
2013-6-5,90.0,68.4,51.8,52.0,38.2,27.4,49,34,28,30.14,29.96,6,2,6,0.00
2013-6-6,70.7,65.8,62.8,65.7,58.2,37.5,100,80,32,29.96,29.78,6,0,6,0.63
2013-6-7,66.2,62.7,59.2,63.7,52.9,40.9,100,74,47,29.87,29.78,6,1,6,0.00
2013-6-8,79.3,62.9,57.2,44.7,40.9,35.9,59,46,30,30.11,29.87,4,0,4,0.00
2013-6-9,86.2,71.2,58.1,49.3,45.0,40.4,64,41,28,30.17,30.05,9,1,9,0.00
2013-6-10,77.9,69.9,65.8,66.3,56.2,47.3,87,63,43,30.05,29.81,6,0,6,0.00
2013-6-11,84.9,69.3,62.2,58.3,50.7,41.6,79,54,28,29.93,29.81,8,1,8,0.00
2013-6-12,83.3,73.9,64.4,59.0,51.6,45.0,79,48,29,29.96,29.81,7,1,7,0.00
2013-6-13,73.2,66.8,60.6,68.1,54.0,40.0,100,66,43,29.81,29.58,9,2,9,0.28
2013-6-14,83.7,63.2,55.8,47.5,43.1,35.4,70,50,27,30.08,29.81,6,1,6,0.00
2013-6-15,89.8,66.9,51.6,51.9,42.2,35.4,82,45,27,30.14,30.02,6,1,6,0.00
2013-6-16,72.1,66.9,61.9,65.2,53.3,35.4,93,64,32,30.05,29.93,6,1,6,0.08
2013-6-17,85.1,72.9,64.6,66.1,51.3,40.9,92,52,28,29.99,29.93,6,0,6,0.00
2013-6-18,79.0,68.2,62.4,64.8,50.0,42.3,90,54,32,29.99,29.87,4,0,4,0.08
2013-6-19,88.3,66.5,57.0,51.1,39.3,29.6,56,38,27,30.17,29.99,8,2,8,0.00
2013-6-20,92.1,67.9,51.4,52.9,40.6,29.8,68,39,27,30.23,30.14,6,1,6,0.00
2013-6-21,96.1,72.7,56.8,54.7,45.0,36.6,71,40,26,30.29,30.20,6,1,6,0.00
2013-6-22,95.9,76.1,63.3,55.2,48.2,36.2,67,39,26,30.23,30.11,7,1,7,0.00
2013-6-23,93.4,78.2,68.4,57.8,51.2,44.6,67,41,27,30.20,30.11,6,1,6,0.00
2013-6-24,97.2,79.5,67.5,56.9,50.5,42.4,65,39,26,30.20,30.08,7,1,7,0.00
2013-6-25,95.2,77.6,66.4,65.5,53.4,39.1,94,48,26,30.11,29.96,9,2,9,0.00
2013-6-26,77.4,68.1,66.2,72.9,65.5,53.6,100,93,47,30.05,29.93,6,0,6,0.00
2013-6-27,78.1,71.1,66.7,68.8,60.7,51.9,92,71,44,29.81,29.69,6,1,6,0.00
2013-6-28,83.5,69.0,63.1,66.4,57.6,46.2,91,69,40,29.73,29.58,13,0,13,0.00
2013-6-29,86.4,69.7,59.9,64.3,53.0,18.5,94,61,28,29.75,29.61,6,1,6,0.00
2013-6-30,91.2,71.8,63.3,64.9,52.7,41.8,86,55,27,29.90,29.75,7,1,7,0.00
2013-7-1,67.8,67.5,66.6,64.3,58.8,55.4,89,74,66,29.93,29.87,4,0,0,0.00
2013-9-15,72.3,65.0,59.9,43.2,38.1,33.1,52,38,29,30.38,30.05,6,1,6,0.00
2013-9-16,79.5,61.0,54.0,57.0,43.0,31.9,97,56,27,30.32,30.08,6,1,6,0.00
2013-9-17,79.5,57.3,47.1,42.8,34.6,24.2,79,45,27,30.38,30.23,7,1,7,0.00
2013-9-18,83.7,60.0,47.5,47.7,32.7,22.9,51,36,28,30.26,30.11,6,1,6,0.00
2013-9-19,85.3,67.1,60.6,57.7,46.5,39.1,78,50,28,30.17,30.05,5,0,5,0.00
2013-9-20,83.3,70.1,60.6,59.0,53.6,46.4,89,59,29,30.08,29.87,6,1,6,0.00
2013-9-21,69.4,63.9,57.0,63.3,58.0,51.9,100,82,55,29.87,29.75,9,0,9,0.00
2013-9-22,65.7,56.8,53.2,57.7,40.5,26.8,100,61,31,30.02,29.84,6,1,6,0.00
2013-9-23,66.9,53.1,44.6,34.7,30.3,25.0,66,43,30,30.14,30.02,6,1,6,0.00
2013-9-24,78.4,53.0,40.5,47.3,34.4,26.0,100,54,28,30.11,29.99,8,1,8,0.00
2013-9-25,81.3,59.1,48.0,44.1,37.1,29.9,73,47,27,29.99,29.90,6,1,6,0.00
2013-9-26,79.9,61.0,50.5,46.7,38.4,29.6,79,46,27,29.90,29.90,6,1,6,0.00
2013-9-27,76.3,59.7,48.2,51.3,39.2,32.3,93,50,28,29.90,29.90,6,1,6,0.00
2013-9-28,79.0,61.4,52.9,48.3,39.2,29.5,79,47,28,29.90,29.90,7,1,7,0.00
2013-9-29,76.3,61.8,51.6,45.2,39.4,34.1,63,45,30,29.90,29.90,6,0,6,0.00
2013-9-30,72.9,63.2,56.7,48.5,44.8,39.7,64,52,31,29.90,29.90,5,0,5,0.00
2013-10-1,85.8,65.5,58.5,59.7,47.0,37.3,92,55,28,29.90,29.90,6,0,6,0.00
2013-10-2,87.1,67.0,58.3,63.9,50.6,40.8,100,61,28,29.90,29.90,6,1,6,0.00
2013-10-3,81.3,67.7,61.2,65.3,57.2,45.2,100,72,33,29.90,29.90,6,0,5,0.00
2013-10-4,85.8,69.5,62.8,70.0,60.8,43.3,100,80,28,29.90,29.90,7,0,7,0.00
2013-10-5,81.9,70.5,64.8,70.3,61.3,46.6,100,78,32,30.14,29.90,8,0,8,0.00
2013-10-6,88.9,71.8,64.9,69.8,56.1,40.8,100,65,29,30.02,29.81,6,1,6,0.00
2013-10-7,69.3,56.8,47.5,55.4,41.0,28.8,100,59,34,30.14,29.75,8,2,8,0.00
2013-10-8,65.7,52.0,42.6,50.9,37.7,29.1,100,64,30,30.29,30.14,8,1,8,0.00
2013-10-9,68.9,54.1,42.4,46.2,34.5,23.6,100,52,30,30.32,30.23,8,1,8,0.00
2013-10-10,73.2,57.3,46.8,38.9,31.4,24.1,62,38,29,30.23,30.08,6,1,6,0.00
2013-10-11,62.8,57.1,52.9,54.0,44.5,34.0,88,64,42,30.11,30.05,6,1,6,0.00
2013-10-12,74.7,63.2,55.0,48.9,45.4,39.9,71,53,36,30.17,30.05,8,1,8,0.00
2013-10-13,71.6,64.1,58.5,49.9,45.9,42.2,66,52,37,30.26,30.17,8,1,8,0.00
2013-10-14,63.3,60.4,57.9,56.5,49.3,44.4,93,67,52,30.32,30.23,7,0,7,0.00
2013-10-15,72.0,62.0,53.1,60.3,49.4,43.0,100,67,37,30.23,29.99,6,0,6,0.00
2013-10-16,64.4,60.2,57.2,63.3,54.7,44.6,100,83,60,30.02,29.90,5,0,0,0.00
2013-10-17,62.4,55.5,50.0,60.4,45.6,37.0,100,72,45,29.93,29.73,6,0,6,0.00
2013-10-18,68.4,50.6,43.7,50.0,37.4,25.6,100,67,31,30.02,29.90,13,1,13,0.00
2013-10-19,46.4,43.0,40.8,39.7,34.6,33.0,87,72,63,29.99,29.87,0,0,0,0.00
2013-10-20,58.5,49.5,42.3,30.8,26.9,21.6,61,43,32,30.02,29.99,8,1,8,0.00
2013-10-21,79.7,50.9,39.2,42.3,29.1,23.6,72,46,27,30.05,29.84,6,1,6,0.00
2013-10-22,66.4,46.2,39.4,42.0,25.9,15.7,92,47,33,29.96,29.84,7,1,7,0.00
2013-10-23,43.5,40.9,38.7,33.7,26.5,17.0,71,57,38,29.84,29.75,4,0,4,0.00
2013-11-3,37.9,34.8,31.1,15.9,11.9,8.9,42,38,36,30.40,29.81,4,0,4,0.00
2013-11-4,47.1,37.2,27.5,20.0,15.0,8.9,58,41,34,30.49,30.38,8,2,8,0.00
2013-11-5,60.4,46.7,36.1,29.9,20.1,12.3,37,35,32,30.46,30.29,8,1,8,0.00
2013-11-6,74.7,56.3,39.4,54.4,30.9,14.6,87,40,28,30.29,29.93,6,1,6,0.00
2013-11-7,58.3,45.9,36.5,57.9,31.4,13.5,100,61,35,30.11,29.87,9,2,9,0.00
2013-11-8,48.6,37.6,29.1,24.5,16.1,10.2,61,42,34,30.26,30.05,7,1,7,0.00
2013-11-9,63.0,43.0,28.8,30.9,20.5,14.7,61,42,31,30.23,29.93,8,1,8,0.00
2013-11-10,51.6,43.3,32.5,24.7,18.7,11.9,55,37,34,30.26,29.96,9,2,9,0.00
2013-11-11,53.4,40.4,29.5,29.5,21.5,16.2,73,49,33,30.26,30.02,8,1,8,0.00
2013-11-12,37.4,30.4,26.6,30.2,15.5,7.1,87,55,37,30.40,30.08,9,1,9,0.00
2013-11-13,47.3,29.4,22.3,21.9,11.9,6.0,71,49,34,30.46,30.32,6,1,6,0.00
2013-11-14,53.6,34.3,22.6,24.7,13.6,8.6,63,43,33,30.32,30.14,8,1,8,0.00
2013-11-15,66.4,43.5,30.6,33.7,17.7,7.9,38,35,30,30.20,30.11,8,1,8,0.00
2013-11-16,66.2,50.7,38.3,48.8,31.8,17.6,100,51,31,30.20,30.02,6,1,6,0.24
2013-11-17,60.4,56.1,51.3,60.3,51.0,33.8,100,85,47,30.02,29.58,7,1,7,0.35
2013-11-18,68.9,47.9,38.1,41.8,22.4,13.5,59,37,30,30.02,29.64,10,4,10,0.04
2013-11-19,39.2,34.6,27.0,14.6,12.1,7.4,58,39,36,30.34,30.02,9,2,9,0.00
2013-11-20,55.4,35.6,25.7,25.0,14.5,8.6,62,43,33,30.40,30.29,10,3,10,0.00
2013-11-21,57.6,44.7,32.2,27.9,18.7,9.4,39,35,32,30.38,30.20,6,1,6,0.00
2013-11-22,54.5,49.3,36.7,54.5,41.2,21.6,100,76,36,30.20,30.02,8,1,8,0.08
2013-11-23,49.5,31.8,19.8,22.6,12.0,-2.4,57,44,34,30.29,30.11,10,3,10,0.00
2013-11-24,32.2,18.9,12.9,8.6,-0.9,-4.9,49,41,36,30.46,30.26,12,2,12,0.00
2013-11-25,36.3,25.4,12.0,12.2,4.3,-5.8,55,40,37,30.43,30.17,6,1,6,0.00
2013-11-26,35.4,33.8,32.5,34.9,28.4,10.2,100,82,37,30.17,29.69,8,0,8,0.08
2013-11-27,33.6,28.9,22.6,33.6,16.7,2.8,100,62,41,30.08,29.69,6,0,6,0.00
2013-11-28,40.5,25.4,14.4,14.8,6.1,0.5,63,44,36,30.34,30.05,0,0,0,0.00
2013-11-29,46.4,29.1,21.6,23.7,9.6,3.6,70,44,34,30.58,30.34,6,1,6,0.00
2013-11-30,39.9,30.2,23.5,16.3,9.7,3.6,60,42,36,30.55,30.17,7,1,7,0.00
2013-12-1,46.6,37.7,28.4,20.6,16.7,13.0,61,43,34,30.17,29.93,6,0,6,0.04
2013-12-2,49.8,41.3,36.5,27.1,20.0,14.2,59,43,34,29.93,29.78,5,0,5,0.00
2013-12-3,53.8,42.9,37.6,38.2,28.2,22.1,88,58,33,29.90,29.81,4,0,4,0.00
2013-12-4,58.5,48.7,38.5,33.6,29.4,26.1,69,49,34,29.96,29.84,6,1,6,0.00
2013-12-5,61.7,54.8,39.6,59.9,44.4,28.8,100,71,39,30.05,29.84,6,1,6,0.47
2013-12-6,39.7,34.2,29.5,33.4,25.7,19.0,91,71,54,30.23,30.02,6,0,6,0.08
2013-12-7,33.1,26.2,17.6,19.7,9.8,-0.4,66,50,38,30.49,30.20,0,0,0,0.00
2013-12-8,32.7,24.5,17.1,31.4,9.6,-0.2,95,54,40,30.49,29.99,0,0,0,0.00
2013-12-9,38.7,34.5,31.1,38.7,26.1,11.2,100,75,43,30.08,29.90,7,1,7,0.00
2013-12-10,31.1,31.1,31.1,11.2,11.2,11.2,43,43,43,30.08,30.08,0,0,0,0.00
2013-12-11,31.1,31.1,31.1,11.2,11.2,11.2,43,43,43,30.08,30.08,0,0,0,0.00
2013-12-12,31.1,29.1,17.8,11.2,9.0,-3.7,43,42,38,30.20,30.08,6,0,6,0.00
2013-12-13,43.7,26.2,17.2,17.5,3.8,-4.1,39,38,35,30.20,30.11,9,1,9,0.00
2013-12-14,37.2,33.4,28.9,37.2,22.1,6.3,100,68,38,30.17,29.61,8,2,8,0.04
2013-12-15,38.5,30.1,20.5,38.5,17.4,-0.1,100,62,38,29.96,29.58,6,0,6,0.00
2013-12-16,27.0,22.9,19.2,13.3,3.1,-1.2,58,42,38,30.08,29.96,0,0,0,0.00
2013-12-17,35.4,30.7,25.9,29.2,18.0,7.9,82,60,37,29.96,29.87,6,0,6,0.00
2013-12-18,32.0,26.0,19.8,15.1,9.4,1.4,65,50,38,30.14,29.96,8,1,8,0.00
2013-12-19,56.3,36.8,21.9,26.6,16.0,5.5,65,43,32,30.05,29.96,9,1,9,0.04
2013-12-20,54.1,47.6,36.1,45.5,27.6,13.9,79,47,33,29.96,29.84,8,1,8,0.00
2013-12-21,60.1,56.8,51.4,60.1,51.7,38.3,100,85,55,29.87,29.64,8,1,8,0.43
2013-12-22,65.8,58.6,52.9,61.3,46.8,33.0,100,68,44,29.93,29.55,12,2,12,0.08
2013-12-23,52.9,39.0,30.0,44.9,24.1,7.4,87,56,38,30.23,29.93,9,1,9,0.00
2013-12-24,30.6,23.0,11.3,15.8,2.5,-7.4,61,41,35,30.43,30.17,12,2,12,0.00
2013-12-25,27.0,20.0,10.0,15.5,0.3,-8.5,62,42,38,30.40,30.14,6,1,6,0.00
2013-12-26,37.6,29.3,21.4,23.8,12.8,1.6,78,51,37,30.26,30.05,12,1,12,0.00
2013-12-27,42.1,31.0,21.4,16.9,11.0,2.3,54,43,36,30.29,30.17,7,1,7,0.00
2013-12-28,58.8,38.9,29.5,29.0,14.4,7.0,40,36,32,30.17,29.99,8,1,8,0.00
2013-12-29,43.2,40.6,37.4,43.0,32.5,12.8,100,78,36,29.99,29.64,6,1,6,0.16
2013-12-30,40.3,27.8,22.3,38.7,10.5,1.6,94,49,39,30.11,29.78,6,0,6,0.00
2013-12-31,22.5,22.5,22.5,1.7,1.7,1.7,40,40,40,30.05,30.05,0,0,0,0.00
2014-1-1,38.7,27.6,22.5,13.8,5.7,1.7,40,39,36,30.17,29.96,6,1,6,0.00
2014-1-2,32.0,25.4,11.1,18.9,10.2,-2.5,63,52,40,29.96,29.61,10,2,10,0.00